FVMA weather

Marondera Airport
Marondera, Mashonaland East Province, Zimbabwe

Public forecast

Using degrees Celsius for public forecast. Weather courtesy of forecast.io.

Closest aviation weather report (METAR) to Marondera Airport

Closest report is Robert Gabriel Mugabe International Airport, 26.1 nm (48.4 km) NW. Retrieved 2019/10/20 22:00 UTC (32 minutes ago):

FVRG 202200Z 09007KT CAVOK 20/06 Q1021 NOSIG

Closest aviation forecast (TAF) to Marondera Airport

Forecast is more than 12 hours old.

Closest forecast is Robert Gabriel Mugabe International Airport, 26.1 nm (48.4 km) NW. Retrieved 2019-10-19 00:00 UTC (2 days ago):

TAF FBSK 182100Z 1900/2006 23010KT CAVOK TAF FVRG 182200Z 1900/2006 VRB03KT CAVOK